sensor_id;sensor_type;location;lat;lon;timestamp;P1;durP1;ratioP1;P2;durP2;ratioP2
14381;SDS011;7275;50.328;8.720;2022-12-07T00:00:56;8.83;;;7.93;;
14381;SDS011;7275;50.328;8.720;2022-12-07T00:03:32;9.70;;;7.40;;
14381;SDS011;7275;50.328;8.720;2022-12-07T00:06:00;10.43;;;8.33;;
14381;SDS011;7275;50.328;8.720;2022-12-07T00:08:29;9.90;;;8.90;;
14381;SDS011;7275;50.328;8.720;2022-12-07T00:11:00;8.97;;;8.07;;
14381;SDS011;7275;50.328;8.720;2022-12-07T00:13:28;8.67;;;7.73;;
14381;SDS011;7275;50.328;8.720;2022-12-07T00:16:00;9.63;;;8.50;;
14381;SDS011;7275;50.328;8.720;2022-12-07T00:18:29;9.27;;;8.37;;
14381;SDS011;7275;50.328;8.720;2022-12-07T00:21:00;9.73;;;8.50;;
14381;SDS011;7275;50.328;8.720;2022-12-07T00:23:28;9.57;;;8.37;;
14381;SDS011;7275;50.328;8.720;2022-12-07T00:26:02;12.03;;;8.50;;
14381;SDS011;7275;50.328;8.720;2022-12-07T00:28:30;9.17;;;7.93;;
14381;SDS011;7275;50.328;8.720;2022-12-07T00:31:00;11.47;;;8.77;;
14381;SDS011;7275;50.328;8.720;2022-12-07T00:33:29;9.93;;;8.03;;
14381;SDS011;7275;50.328;8.720;2022-12-07T00:35:57;9.33;;;8.20;;
14381;SDS011;7275;50.328;8.720;2022-12-07T00:38:27;9.87;;;8.33;;
14381;SDS011;7275;50.328;8.720;2022-12-07T00:40:56;10.77;;;8.57;;
14381;SDS011;7275;50.328;8.720;2022-12-07T00:43:24;10.53;;;8.70;;
14381;SDS011;7275;50.328;8.720;2022-12-07T00:45:52;10.83;;;8.67;;
14381;SDS011;7275;50.328;8.720;2022-12-07T00:48:21;11.40;;;9.40;;
14381;SDS011;7275;50.328;8.720;2022-12-07T00:50:50;9.93;;;8.17;;
14381;SDS011;7275;50.328;8.720;2022-12-07T00:53:18;10.23;;;8.47;;
14381;SDS011;7275;50.328;8.720;2022-12-07T00:55:46;9.80;;;8.23;;
14381;SDS011;7275;50.328;8.720;2022-12-07T00:58:14;11.27;;;9.53;;
14381;SDS011;7275;50.328;8.720;2022-12-07T01:00:42;12.27;;;9.63;;
14381;SDS011;7275;50.328;8.720;2022-12-07T01:03:10;10.57;;;9.33;;
14381;SDS011;7275;50.328;8.720;2022-12-07T01:05:48;11.53;;;9.23;;
14381;SDS011;7275;50.328;8.720;2022-12-07T01:08:16;12.90;;;10.23;;
14381;SDS011;7275;50.328;8.720;2022-12-07T01:10:44;12.50;;;10.07;;
14381;SDS011;7275;50.328;8.720;2022-12-07T01:13:12;13.40;;;10.37;;
14381;SDS011;7275;50.328;8.720;2022-12-07T01:15:41;11.13;;;9.80;;
14381;SDS011;7275;50.328;8.720;2022-12-07T01:18:09;12.67;;;10.13;;
14381;SDS011;7275;50.328;8.720;2022-12-07T01:20:38;11.07;;;9.57;;
14381;SDS011;7275;50.328;8.720;2022-12-07T01:23:06;11.83;;;9.70;;
14381;SDS011;7275;50.328;8.720;2022-12-07T01:25:35;13.20;;;10.60;;
14381;SDS011;7275;50.328;8.720;2022-12-07T01:28:03;12.73;;;10.50;;
14381;SDS011;7275;50.328;8.720;2022-12-07T01:30:30;11.50;;;10.10;;
14381;SDS011;7275;50.328;8.720;2022-12-07T01:32:58;13.10;;;10.77;;
14381;SDS011;7275;50.328;8.720;2022-12-07T01:35:26;12.53;;;10.63;;
14381;SDS011;7275;50.328;8.720;2022-12-07T01:37:53;11.60;;;10.40;;
14381;SDS011;7275;50.328;8.720;2022-12-07T01:40:22;12.60;;;9.90;;
14381;SDS011;7275;50.328;8.720;2022-12-07T01:42:50;13.00;;;10.43;;
14381;SDS011;7275;50.328;8.720;2022-12-07T01:45:31;12.03;;;9.90;;
14381;SDS011;7275;50.328;8.720;2022-12-07T01:48:04;12.20;;;9.67;;
14381;SDS011;7275;50.328;8.720;2022-12-07T01:50:33;12.10;;;9.80;;
14381;SDS011;7275;50.328;8.720;2022-12-07T01:53:02;12.30;;;10.40;;
14381;SDS011;7275;50.328;8.720;2022-12-07T01:55:34;12.47;;;10.10;;
14381;SDS011;7275;50.328;8.720;2022-12-07T01:58:06;10.57;;;8.70;;
14381;SDS011;7275;50.328;8.720;2022-12-07T02:00:34;12.50;;;8.97;;
14381;SDS011;7275;50.328;8.720;2022-12-07T02:03:03;11.80;;;9.20;;
14381;SDS011;7275;50.328;8.720;2022-12-07T02:05:33;9.90;;;8.53;;
14381;SDS011;7275;50.328;8.720;2022-12-07T02:08:04;11.40;;;8.93;;
14381;SDS011;7275;50.328;8.720;2022-12-07T02:10:33;9.63;;;8.57;;
14381;SDS011;7275;50.328;8.720;2022-12-07T02:13:01;10.63;;;8.70;;
14381;SDS011;7275;50.328;8.720;2022-12-07T02:15:34;9.53;;;8.33;;
14381;SDS011;7275;50.328;8.720;2022-12-07T02:18:14;9.20;;;8.23;;
14381;SDS011;7275;50.328;8.720;2022-12-07T02:20:48;9.40;;;8.40;;
14381;SDS011;7275;50.328;8.720;2022-12-07T02:26:16;9.70;;;7.73;;
14381;SDS011;7275;50.328;8.720;2022-12-07T02:29:03;10.03;;;8.00;;
14381;SDS011;7275;50.328;8.720;2022-12-07T02:31:42;8.70;;;7.47;;
14381;SDS011;7275;50.328;8.720;2022-12-07T02:34:15;10.47;;;8.63;;
14381;SDS011;7275;50.328;8.720;2022-12-07T02:36:51;10.43;;;8.27;;
14381;SDS011;7275;50.328;8.720;2022-12-07T02:39:25;10.27;;;8.33;;
14381;SDS011;7275;50.328;8.720;2022-12-07T02:41:59;10.00;;;8.13;;
14381;SDS011;7275;50.328;8.720;2022-12-07T02:44:33;9.77;;;8.13;;
14381;SDS011;7275;50.328;8.720;2022-12-07T02:47:02;9.07;;;7.60;;
14381;SDS011;7275;50.328;8.720;2022-12-07T02:49:33;9.93;;;7.23;;
14381;SDS011;7275;50.328;8.720;2022-12-07T02:52:03;9.70;;;7.87;;
14381;SDS011;7275;50.328;8.720;2022-12-07T02:54:31;9.67;;;7.70;;
14381;SDS011;7275;50.328;8.720;2022-12-07T02:57:00;7.00;;;6.17;;
14381;SDS011;7275;50.328;8.720;2022-12-07T02:59:44;7.80;;;6.33;;
14381;SDS011;7275;50.328;8.720;2022-12-07T03:02:25;7.17;;;6.47;;
14381;SDS011;7275;50.328;8.720;2022-12-07T03:05:05;7.33;;;6.07;;
14381;SDS011;7275;50.328;8.720;2022-12-07T03:07:49;7.73;;;6.30;;
14381;SDS011;7275;50.328;8.720;2022-12-07T03:10:22;6.33;;;5.50;;
14381;SDS011;7275;50.328;8.720;2022-12-07T03:12:57;7.10;;;5.67;;
14381;SDS011;7275;50.328;8.720;2022-12-07T03:15:33;6.57;;;5.80;;
14381;SDS011;7275;50.328;8.720;2022-12-07T03:18:06;6.07;;;5.40;;
14381;SDS011;7275;50.328;8.720;2022-12-07T03:20:36;7.73;;;5.80;;
14381;SDS011;7275;50.328;8.720;2022-12-07T03:23:05;6.33;;;5.63;;
14381;SDS011;7275;50.328;8.720;2022-12-07T03:25:35;6.10;;;5.50;;
14381;SDS011;7275;50.328;8.720;2022-12-07T03:28:07;5.53;;;4.90;;
14381;SDS011;7275;50.328;8.720;2022-12-07T03:30:39;6.17;;;5.50;;
14381;SDS011;7275;50.328;8.720;2022-12-07T03:33:13;5.90;;;5.00;;
14381;SDS011;7275;50.328;8.720;2022-12-07T03:35:48;5.77;;;4.93;;
14381;SDS011;7275;50.328;8.720;2022-12-07T03:38:23;6.03;;;5.20;;
14381;SDS011;7275;50.328;8.720;2022-12-07T03:40:57;5.80;;;5.10;;
14381;SDS011;7275;50.328;8.720;2022-12-07T03:43:28;6.73;;;5.47;;
14381;SDS011;7275;50.328;8.720;2022-12-07T03:46:00;6.47;;;5.40;;
14381;SDS011;7275;50.328;8.720;2022-12-07T03:48:37;6.00;;;5.40;;
14381;SDS011;7275;50.328;8.720;2022-12-07T03:51:11;5.20;;;4.70;;
14381;SDS011;7275;50.328;8.720;2022-12-07T03:53:46;5.87;;;4.77;;
14381;SDS011;7275;50.328;8.720;2022-12-07T03:56:17;5.77;;;4.80;;
14381;SDS011;7275;50.328;8.720;2022-12-07T03:58:47;5.10;;;4.60;;
14381;SDS011;7275;50.328;8.720;2022-12-07T04:01:18;4.57;;;4.17;;
14381;SDS011;7275;50.328;8.720;2022-12-07T04:03:46;5.53;;;4.80;;
14381;SDS011;7275;50.328;8.720;2022-12-07T04:06:14;5.00;;;4.50;;
14381;SDS011;7275;50.328;8.720;2022-12-07T04:08:41;5.27;;;4.40;;
14381;SDS011;7275;50.328;8.720;2022-12-07T04:11:09;5.37;;;4.80;;
14381;SDS011;7275;50.328;8.720;2022-12-07T04:13:36;4.40;;;4.00;;
14381;SDS011;7275;50.328;8.720;2022-12-07T04:16:19;5.37;;;4.80;;
14381;SDS011;7275;50.328;8.720;2022-12-07T04:18:47;4.20;;;3.80;;
14381;SDS011;7275;50.328;8.720;2022-12-07T04:21:14;4.00;;;3.60;;
14381;SDS011;7275;50.328;8.720;2022-12-07T04:23:42;5.10;;;4.37;;
14381;SDS011;7275;50.328;8.720;2022-12-07T04:26:09;5.23;;;4.63;;
14381;SDS011;7275;50.328;8.720;2022-12-07T04:28:37;5.43;;;4.90;;
14381;SDS011;7275;50.328;8.720;2022-12-07T04:31:04;5.10;;;4.60;;
14381;SDS011;7275;50.328;8.720;2022-12-07T04:33:33;6.53;;;5.13;;
14381;SDS011;7275;50.328;8.720;2022-12-07T04:36:02;7.60;;;4.83;;
14381;SDS011;7275;50.328;8.720;2022-12-07T04:38:30;6.07;;;5.43;;
14381;SDS011;7275;50.328;8.720;2022-12-07T04:40:58;6.30;;;5.50;;
14381;SDS011;7275;50.328;8.720;2022-12-07T04:43:25;6.10;;;4.90;;
14381;SDS011;7275;50.328;8.720;2022-12-07T04:45:53;5.43;;;4.87;;
14381;SDS011;7275;50.328;8.720;2022-12-07T04:48:20;6.33;;;5.40;;
14381;SDS011;7275;50.328;8.720;2022-12-07T04:50:49;5.97;;;5.37;;
14381;SDS011;7275;50.328;8.720;2022-12-07T04:53:16;5.50;;;4.67;;
14381;SDS011;7275;50.328;8.720;2022-12-07T04:55:44;5.00;;;4.50;;
14381;SDS011;7275;50.328;8.720;2022-12-07T04:58:12;6.10;;;5.07;;
14381;SDS011;7275;50.328;8.720;2022-12-07T05:00:40;5.63;;;5.03;;
14381;SDS011;7275;50.328;8.720;2022-12-07T05:03:08;5.10;;;4.60;;
14381;SDS011;7275;50.328;8.720;2022-12-07T05:05:35;5.43;;;4.73;;
14381;SDS011;7275;50.328;8.720;2022-12-07T05:08:05;6.87;;;5.67;;
14381;SDS011;7275;50.328;8.720;2022-12-07T05:10:32;5.87;;;5.30;;
14381;SDS011;7275;50.328;8.720;2022-12-07T05:13:00;5.57;;;4.97;;
14381;SDS011;7275;50.328;8.720;2022-12-07T05:15:27;5.87;;;5.27;;
14381;SDS011;7275;50.328;8.720;2022-12-07T05:17:55;7.27;;;5.50;;
14381;SDS011;7275;50.328;8.720;2022-12-07T05:20:22;6.33;;;5.70;;
14381;SDS011;7275;50.328;8.720;2022-12-07T05:22:50;6.10;;;5.50;;
14381;SDS011;7275;50.328;8.720;2022-12-07T05:25:18;5.40;;;4.87;;
14381;SDS011;7275;50.328;8.720;2022-12-07T05:27:46;6.73;;;5.50;;
14381;SDS011;7275;50.328;8.720;2022-12-07T05:30:14;6.03;;;5.43;;
14381;SDS011;7275;50.328;8.720;2022-12-07T05:32:42;5.90;;;5.30;;
14381;SDS011;7275;50.328;8.720;2022-12-07T05:35:09;6.20;;;5.60;;
14381;SDS011;7275;50.328;8.720;2022-12-07T05:37:37;6.93;;;5.40;;
14381;SDS011;7275;50.328;8.720;2022-12-07T05:40:05;5.30;;;4.80;;
14381;SDS011;7275;50.328;8.720;2022-12-07T05:42:34;6.00;;;5.40;;
14381;SDS011;7275;50.328;8.720;2022-12-07T05:45:02;5.27;;;4.77;;
14381;SDS011;7275;50.328;8.720;2022-12-07T05:47:30;5.57;;;4.97;;
14381;SDS011;7275;50.328;8.720;2022-12-07T05:49:58;6.30;;;5.33;;
14381;SDS011;7275;50.328;8.720;2022-12-07T05:52:26;6.63;;;5.93;;
14381;SDS011;7275;50.328;8.720;2022-12-07T05:54:54;6.33;;;5.63;;
14381;SDS011;7275;50.328;8.720;2022-12-07T05:57:21;6.80;;;6.10;;
14381;SDS011;7275;50.328;8.720;2022-12-07T05:59:50;6.53;;;5.70;;
14381;SDS011;7275;50.328;8.720;2022-12-07T06:02:17;6.40;;;5.80;;
14381;SDS011;7275;50.328;8.720;2022-12-07T06:04:45;5.63;;;5.07;;
14381;SDS011;7275;50.328;8.720;2022-12-07T06:07:14;6.77;;;6.07;;
14381;SDS011;7275;50.328;8.720;2022-12-07T06:09:43;7.27;;;6.33;;
14381;SDS011;7275;50.328;8.720;2022-12-07T06:12:11;6.47;;;5.70;;
14381;SDS011;7275;50.328;8.720;2022-12-07T06:14:54;6.73;;;5.93;;
14381;SDS011;7275;50.328;8.720;2022-12-07T06:17:22;6.30;;;5.70;;
14381;SDS011;7275;50.328;8.720;2022-12-07T06:19:49;7.10;;;6.27;;
14381;SDS011;7275;50.328;8.720;2022-12-07T06:22:17;8.27;;;5.80;;
14381;SDS011;7275;50.328;8.720;2022-12-07T06:24:44;6.20;;;5.60;;
14381;SDS011;7275;50.328;8.720;2022-12-07T06:27:12;6.43;;;5.70;;
14381;SDS011;7275;50.328;8.720;2022-12-07T06:29:39;6.07;;;5.47;;
14381;SDS011;7275;50.328;8.720;2022-12-07T06:32:08;6.03;;;5.33;;
14381;SDS011;7275;50.328;8.720;2022-12-07T06:34:36;5.63;;;4.97;;
14381;SDS011;7275;50.328;8.720;2022-12-07T06:37:03;5.37;;;4.70;;
14381;SDS011;7275;50.328;8.720;2022-12-07T06:39:31;5.23;;;4.57;;
14381;SDS011;7275;50.328;8.720;2022-12-07T06:41:59;6.03;;;5.00;;
14381;SDS011;7275;50.328;8.720;2022-12-07T06:44:26;5.37;;;4.73;;
14381;SDS011;7275;50.328;8.720;2022-12-07T06:46:54;5.60;;;4.97;;
14381;SDS011;7275;50.328;8.720;2022-12-07T06:49:42;5.43;;;4.70;;
14381;SDS011;7275;50.328;8.720;2022-12-07T06:52:10;5.00;;;4.30;;
14381;SDS011;7275;50.328;8.720;2022-12-07T06:54:37;5.00;;;4.37;;
14381;SDS011;7275;50.328;8.720;2022-12-07T06:57:05;4.40;;;4.00;;
14381;SDS011;7275;50.328;8.720;2022-12-07T06:59:32;4.83;;;4.30;;
14381;SDS011;7275;50.328;8.720;2022-12-07T07:02:00;5.37;;;4.37;;
14381;SDS011;7275;50.328;8.720;2022-12-07T07:04:27;5.07;;;4.57;;
14381;SDS011;7275;50.328;8.720;2022-12-07T07:06:56;16.57;;;11.90;;
14381;SDS011;7275;50.328;8.720;2022-12-07T07:09:25;14.00;;;11.40;;
14381;SDS011;7275;50.328;8.720;2022-12-07T07:11:53;8.97;;;7.50;;
14381;SDS011;7275;50.328;8.720;2022-12-07T07:14:20;6.20;;;5.60;;
14381;SDS011;7275;50.328;8.720;2022-12-07T07:16:48;4.97;;;4.47;;
14381;SDS011;7275;50.328;8.720;2022-12-07T07:19:15;5.00;;;4.43;;
14381;SDS011;7275;50.328;8.720;2022-12-07T07:21:43;4.70;;;4.13;;
14381;SDS011;7275;50.328;8.720;2022-12-07T07:24:12;4.90;;;4.23;;
14381;SDS011;7275;50.328;8.720;2022-12-07T07:26:39;4.50;;;3.67;;
14381;SDS011;7275;50.328;8.720;2022-12-07T07:29:07;4.20;;;3.80;;
14381;SDS011;7275;50.328;8.720;2022-12-07T07:31:34;4.60;;;4.20;;
14381;SDS011;7275;50.328;8.720;2022-12-07T07:34:03;5.37;;;3.87;;
14381;SDS011;7275;50.328;8.720;2022-12-07T07:36:32;4.47;;;3.93;;
14381;SDS011;7275;50.328;8.720;2022-12-07T07:38:59;4.40;;;3.90;;
14381;SDS011;7275;50.328;8.720;2022-12-07T07:41:28;4.63;;;4.17;;
14381;SDS011;7275;50.328;8.720;2022-12-07T07:43:56;4.13;;;3.73;;
14381;SDS011;7275;50.328;8.720;2022-12-07T07:46:23;5.17;;;4.67;;
14381;SDS011;7275;50.328;8.720;2022-12-07T07:48:51;4.73;;;4.00;;
14381;SDS011;7275;50.328;8.720;2022-12-07T07:51:18;4.70;;;4.27;;
14381;SDS011;7275;50.328;8.720;2022-12-07T07:53:46;5.37;;;4.70;;
14381;SDS011;7275;50.328;8.720;2022-12-07T07:56:13;4.90;;;4.50;;
14381;SDS011;7275;50.328;8.720;2022-12-07T07:58:42;4.83;;;4.33;;
14381;SDS011;7275;50.328;8.720;2022-12-07T08:01:09;5.00;;;4.33;;
14381;SDS011;7275;50.328;8.720;2022-12-07T08:03:37;5.23;;;4.73;;
14381;SDS011;7275;50.328;8.720;2022-12-07T08:06:05;5.13;;;4.50;;
14381;SDS011;7275;50.328;8.720;2022-12-07T08:08:33;7.50;;;5.00;;
14381;SDS011;7275;50.328;8.720;2022-12-07T08:11:00;5.27;;;4.77;;
14381;SDS011;7275;50.328;8.720;2022-12-07T08:13:28;5.07;;;4.57;;
14381;SDS011;7275;50.328;8.720;2022-12-07T08:15:58;5.13;;;4.43;;
14381;SDS011;7275;50.328;8.720;2022-12-07T08:18:30;5.03;;;4.40;;
14381;SDS011;7275;50.328;8.720;2022-12-07T08:20:58;5.00;;;4.27;;
14381;SDS011;7275;50.328;8.720;2022-12-07T08:23:26;8.10;;;7.03;;
14381;SDS011;7275;50.328;8.720;2022-12-07T08:26:05;42.23;;;32.40;;
14381;SDS011;7275;50.328;8.720;2022-12-07T08:28:34;20.90;;;16.30;;
14381;SDS011;7275;50.328;8.720;2022-12-07T08:31:05;11.60;;;9.57;;
14381;SDS011;7275;50.328;8.720;2022-12-07T08:33:34;7.00;;;6.17;;
14381;SDS011;7275;50.328;8.720;2022-12-07T08:36:02;5.63;;;5.07;;
14381;SDS011;7275;50.328;8.720;2022-12-07T08:38:30;4.80;;;4.40;;
14381;SDS011;7275;50.328;8.720;2022-12-07T08:40:58;4.13;;;3.73;;
14381;SDS011;7275;50.328;8.720;2022-12-07T08:43:26;3.77;;;3.37;;
14381;SDS011;7275;50.328;8.720;2022-12-07T08:45:55;4.27;;;3.50;;
14381;SDS011;7275;50.328;8.720;2022-12-07T08:48:32;3.37;;;3.07;;
14381;SDS011;7275;50.328;8.720;2022-12-07T08:51:01;4.30;;;3.50;;
14381;SDS011;7275;50.328;8.720;2022-12-07T08:53:29;4.10;;;3.27;;
14381;SDS011;7275;50.328;8.720;2022-12-07T08:55:58;4.47;;;3.40;;
14381;SDS011;7275;50.328;8.720;2022-12-07T08:58:25;3.70;;;3.30;;
14381;SDS011;7275;50.328;8.720;2022-12-07T09:00:53;3.60;;;2.87;;
14381;SDS011;7275;50.328;8.720;2022-12-07T09:03:21;3.23;;;2.90;;
14381;SDS011;7275;50.328;8.720;2022-12-07T09:05:50;2.80;;;2.57;;
14381;SDS011;7275;50.328;8.720;2022-12-07T09:08:19;3.00;;;2.70;;
14381;SDS011;7275;50.328;8.720;2022-12-07T09:10:48;3.20;;;2.70;;
14381;SDS011;7275;50.328;8.720;2022-12-07T09:13:16;2.90;;;2.60;;
14381;SDS011;7275;50.328;8.720;2022-12-07T09:15:44;3.67;;;2.60;;
14381;SDS011;7275;50.328;8.720;2022-12-07T09:18:11;2.53;;;2.07;;
14381;SDS011;7275;50.328;8.720;2022-12-07T09:20:39;4.27;;;2.50;;
14381;SDS011;7275;50.328;8.720;2022-12-07T09:23:07;2.57;;;2.30;;
14381;SDS011;7275;50.328;8.720;2022-12-07T09:25:35;2.30;;;2.10;;
14381;SDS011;7275;50.328;8.720;2022-12-07T09:28:03;2.43;;;2.07;;
14381;SDS011;7275;50.328;8.720;2022-12-07T09:30:30;3.20;;;2.30;;
14381;SDS011;7275;50.328;8.720;2022-12-07T09:33:17;2.70;;;2.20;;
14381;SDS011;7275;50.328;8.720;2022-12-07T09:35:46;2.50;;;2.30;;
14381;SDS011;7275;50.328;8.720;2022-12-07T09:38:17;2.67;;;2.30;;
14381;SDS011;7275;50.328;8.720;2022-12-07T09:40:46;2.43;;;2.10;;
14381;SDS011;7275;50.328;8.720;2022-12-07T09:43:15;2.43;;;1.97;;
14381;SDS011;7275;50.328;8.720;2022-12-07T09:45:45;2.40;;;1.88;;
14381;SDS011;7275;50.328;8.720;2022-12-07T09:48:16;3.13;;;1.83;;
14381;SDS011;7275;50.328;8.720;2022-12-07T09:50:45;1.90;;;1.67;;
14381;SDS011;7275;50.328;8.720;2022-12-07T09:53:18;2.05;;;1.80;;
14381;SDS011;7275;50.328;8.720;2022-12-07T09:55:54;2.40;;;1.73;;
14381;SDS011;7275;50.328;8.720;2022-12-07T09:58:23;3.25;;;1.90;;
14381;SDS011;7275;50.328;8.720;2022-12-07T10:00:52;1.83;;;1.63;;
14381;SDS011;7275;50.328;8.720;2022-12-07T10:03:23;2.47;;;1.80;;
14381;SDS011;7275;50.328;8.720;2022-12-07T10:05:51;2.80;;;1.77;;
14381;SDS011;7275;50.328;8.720;2022-12-07T10:08:21;2.67;;;1.40;;
14381;SDS011;7275;50.328;8.720;2022-12-07T10:10:52;3.67;;;1.80;;
14381;SDS011;7275;50.328;8.720;2022-12-07T10:13:22;1.93;;;1.77;;
14381;SDS011;7275;50.328;8.720;2022-12-07T10:16:00;2.73;;;2.20;;
14381;SDS011;7275;50.328;8.720;2022-12-07T10:18:33;5.40;;;4.07;;
14381;SDS011;7275;50.328;8.720;2022-12-07T10:21:04;12.37;;;10.23;;
14381;SDS011;7275;50.328;8.720;2022-12-07T10:23:41;18.55;;;15.70;;
14381;SDS011;7275;50.328;8.720;2022-12-07T10:26:26;5.50;;;4.90;;
14381;SDS011;7275;50.328;8.720;2022-12-07T10:28:58;2.90;;;2.60;;
14381;SDS011;7275;50.328;8.720;2022-12-07T10:31:27;2.78;;;2.20;;
14381;SDS011;7275;50.328;8.720;2022-12-07T10:33:56;2.83;;;1.90;;
14381;SDS011;7275;50.328;8.720;2022-12-07T10:36:26;2.75;;;1.80;;
14381;SDS011;7275;50.328;8.720;2022-12-07T10:39:03;2.47;;;1.70;;
14381;SDS011;7275;50.328;8.720;2022-12-07T10:41:42;2.35;;;1.70;;
14381;SDS011;7275;50.328;8.720;2022-12-07T10:44:21;2.20;;;1.73;;
14381;SDS011;7275;50.328;8.720;2022-12-07T10:46:53;2.03;;;1.80;;
14381;SDS011;7275;50.328;8.720;2022-12-07T10:49:57;2.10;;;1.75;;
14381;SDS011;7275;50.328;8.720;2022-12-07T10:55:26;2.47;;;1.60;;
14381;SDS011;7275;50.328;8.720;2022-12-07T10:58:13;1.70;;;1.50;;
14381;SDS011;7275;50.328;8.720;2022-12-07T11:00:52;1.75;;;1.50;;
14381;SDS011;7275;50.328;8.720;2022-12-07T11:03:34;1.90;;;1.52;;
14381;SDS011;7275;50.328;8.720;2022-12-07T11:06:14;1.92;;;1.70;;
14381;SDS011;7275;50.328;8.720;2022-12-07T11:08:54;1.80;;;1.55;;
14381;SDS011;7275;50.328;8.720;2022-12-07T11:11:32;1.90;;;1.40;;
14381;SDS011;7275;50.328;8.720;2022-12-07T11:14:05;2.22;;;1.70;;
14381;SDS011;7275;50.328;8.720;2022-12-07T11:16:50;1.42;;;1.33;;
14381;SDS011;7275;50.328;8.720;2022-12-07T11:19:32;2.38;;;1.52;;
14381;SDS011;7275;50.328;8.720;2022-12-07T11:22:19;1.65;;;1.52;;
14381;SDS011;7275;50.328;8.720;2022-12-07T11:24:54;2.03;;;1.60;;
14381;SDS011;7275;50.328;8.720;2022-12-07T11:27:32;2.47;;;1.50;;
14381;SDS011;7275;50.328;8.720;2022-12-07T11:30:13;2.37;;;1.50;;
14381;SDS011;7275;50.328;8.720;2022-12-07T11:32:58;2.22;;;1.42;;
14381;SDS011;7275;50.328;8.720;2022-12-07T11:35:36;2.08;;;1.60;;
14381;SDS011;7275;50.328;8.720;2022-12-07T11:38:14;1.45;;;1.33;;
14381;SDS011;7275;50.328;8.720;2022-12-07T11:40:50;2.53;;;1.45;;
14381;SDS011;7275;50.328;8.720;2022-12-07T11:43:23;2.38;;;1.70;;
14381;SDS011;7275;50.328;8.720;2022-12-07T11:45:55;2.45;;;1.58;;
14381;SDS011;7275;50.328;8.720;2022-12-07T11:48:29;2.40;;;1.70;;
14381;SDS011;7275;50.328;8.720;2022-12-07T11:51:00;2.50;;;1.98;;
14381;SDS011;7275;50.328;8.720;2022-12-07T11:53:30;2.75;;;1.70;;
14381;SDS011;7275;50.328;8.720;2022-12-07T11:56:03;2.28;;;1.58;;
14381;SDS011;7275;50.328;8.720;2022-12-07T11:58:39;2.60;;;1.60;;
14381;SDS011;7275;50.328;8.720;2022-12-07T12:01:14;2.78;;;1.70;;
14381;SDS011;7275;50.328;8.720;2022-12-07T12:03:53;1.88;;;1.58;;
14381;SDS011;7275;50.328;8.720;2022-12-07T12:06:25;1.97;;;1.30;;
14381;SDS011;7275;50.328;8.720;2022-12-07T12:08:53;3.77;;;1.80;;
14381;SDS011;7275;50.328;8.720;2022-12-07T12:11:52;2.23;;;1.60;;
14381;SDS011;7275;50.328;8.720;2022-12-07T12:14:57;2.33;;;1.50;;
14381;SDS011;7275;50.328;8.720;2022-12-07T12:17:42;1.90;;;1.53;;
14381;SDS011;7275;50.328;8.720;2022-12-07T12:20:19;2.40;;;1.60;;
14381;SDS011;7275;50.328;8.720;2022-12-07T12:22:52;1.90;;;1.60;;
14381;SDS011;7275;50.328;8.720;2022-12-07T12:25:23;1.93;;;1.50;;
14381;SDS011;7275;50.328;8.720;2022-12-07T12:27:54;1.90;;;1.60;;
14381;SDS011;7275;50.328;8.720;2022-12-07T12:30:29;1.77;;;1.37;;
14381;SDS011;7275;50.328;8.720;2022-12-07T12:33:03;3.67;;;2.97;;
14381;SDS011;7275;50.328;8.720;2022-12-07T12:35:33;3.57;;;2.10;;
14381;SDS011;7275;50.328;8.720;2022-12-07T12:40:57;2.17;;;1.53;;
14381;SDS011;7275;50.328;8.720;2022-12-07T12:55:18;5.80;;;4.07;;
14381;SDS011;7275;50.328;8.720;2022-12-07T13:03:56;23.98;;;9.60;;
14381;SDS011;7275;50.328;8.720;2022-12-07T13:06:32;45.15;;;18.58;;
14381;SDS011;7275;50.328;8.720;2022-12-07T13:09:04;39.33;;;15.93;;
14381;SDS011;7275;50.328;8.720;2022-12-07T13:11:45;28.30;;;11.90;;
14381;SDS011;7275;50.328;8.720;2022-12-07T13:17:10;26.55;;;12.43;;
14381;SDS011;7275;50.328;8.720;2022-12-07T13:25:18;65.50;;;24.67;;
14381;SDS011;7275;50.328;8.720;2022-12-07T13:27:50;18.45;;;8.60;;
14381;SDS011;7275;50.328;8.720;2022-12-07T13:30:23;13.07;;;5.22;;
14381;SDS011;7275;50.328;8.720;2022-12-07T13:32:52;7.60;;;3.75;;
14381;SDS011;7275;50.328;8.720;2022-12-07T13:35:29;4.03;;;2.25;;
14381;SDS011;7275;50.328;8.720;2022-12-07T13:38:02;17.40;;;6.38;;
14381;SDS011;7275;50.328;8.720;2022-12-07T13:40:32;52.30;;;15.55;;
14381;SDS011;7275;50.328;8.720;2022-12-07T13:43:00;144.30;;;74.82;;
14381;SDS011;7275;50.328;8.720;2022-12-07T13:45:30;40.47;;;30.30;;
14381;SDS011;7275;50.328;8.720;2022-12-07T13:48:20;9.68;;;7.38;;
14381;SDS011;7275;50.328;8.720;2022-12-07T13:50:55;3.58;;;3.10;;
14381;SDS011;7275;50.328;8.720;2022-12-07T13:53:24;2.42;;;2.05;;
14381;SDS011;7275;50.328;8.720;2022-12-07T13:55:54;2.90;;;1.83;;
14381;SDS011;7275;50.328;8.720;2022-12-07T13:58:22;2.33;;;1.85;;
14381;SDS011;7275;50.328;8.720;2022-12-07T14:00:49;2.03;;;1.83;;
14381;SDS011;7275;50.328;8.720;2022-12-07T14:03:29;2.20;;;1.60;;
14381;SDS011;7275;50.328;8.720;2022-12-07T14:06:06;1.83;;;1.50;;
14381;SDS011;7275;50.328;8.720;2022-12-07T14:08:42;2.00;;;1.30;;
14381;SDS011;7275;50.328;8.720;2022-12-07T14:11:12;1.53;;;1.30;;
14381;SDS011;7275;50.328;8.720;2022-12-07T14:13:55;2.27;;;1.60;;
14381;SDS011;7275;50.328;8.720;2022-12-07T14:16:26;2.13;;;1.30;;
14381;SDS011;7275;50.328;8.720;2022-12-07T14:18:55;2.60;;;1.60;;
14381;SDS011;7275;50.328;8.720;2022-12-07T14:21:26;2.83;;;1.50;;
14381;SDS011;7275;50.328;8.720;2022-12-07T14:24:04;2.13;;;1.30;;
14381;SDS011;7275;50.328;8.720;2022-12-07T14:26:36;2.67;;;1.40;;
14381;SDS011;7275;50.328;8.720;2022-12-07T14:29:21;2.73;;;1.50;;
14381;SDS011;7275;50.328;8.720;2022-12-07T14:31:50;2.10;;;1.47;;
14381;SDS011;7275;50.328;8.720;2022-12-07T14:34:19;2.20;;;1.40;;
14381;SDS011;7275;50.328;8.720;2022-12-07T14:36:49;1.60;;;1.20;;
14381;SDS011;7275;50.328;8.720;2022-12-07T14:39:17;1.53;;;1.10;;
14381;SDS011;7275;50.328;8.720;2022-12-07T14:41:44;1.30;;;1.10;;
14381;SDS011;7275;50.328;8.720;2022-12-07T14:44:18;2.77;;;1.30;;
14381;SDS011;7275;50.328;8.720;2022-12-07T14:46:51;1.37;;;1.10;;
14381;SDS011;7275;50.328;8.720;2022-12-07T14:49:40;1.40;;;1.10;;
14381;SDS011;7275;50.328;8.720;2022-12-07T14:52:11;2.60;;;1.03;;
14381;SDS011;7275;50.328;8.720;2022-12-07T14:55:02;1.50;;;1.00;;
14381;SDS011;7275;50.328;8.720;2022-12-07T14:57:30;2.07;;;1.07;;
14381;SDS011;7275;50.328;8.720;2022-12-07T14:59:58;2.03;;;1.13;;
14381;SDS011;7275;50.328;8.720;2022-12-07T15:02:25;1.80;;;1.10;;
14381;SDS011;7275;50.328;8.720;2022-12-07T15:04:53;1.50;;;1.20;;
14381;SDS011;7275;50.328;8.720;2022-12-07T15:07:22;1.73;;;1.20;;
14381;SDS011;7275;50.328;8.720;2022-12-07T15:09:49;1.67;;;1.30;;
14381;SDS011;7275;50.328;8.720;2022-12-07T15:12:17;2.00;;;1.30;;
14381;SDS011;7275;50.328;8.720;2022-12-07T15:14:44;2.43;;;1.20;;
14381;SDS011;7275;50.328;8.720;2022-12-07T15:17:12;2.13;;;1.30;;
14381;SDS011;7275;50.328;8.720;2022-12-07T15:19:55;3.47;;;1.50;;
14381;SDS011;7275;50.328;8.720;2022-12-07T15:22:23;3.13;;;1.73;;
14381;SDS011;7275;50.328;8.720;2022-12-07T15:24:51;2.37;;;1.40;;
14381;SDS011;7275;50.328;8.720;2022-12-07T15:27:18;2.17;;;1.20;;
14381;SDS011;7275;50.328;8.720;2022-12-07T15:29:46;2.30;;;1.50;;
14381;SDS011;7275;50.328;8.720;2022-12-07T15:32:13;1.50;;;1.40;;
14381;SDS011;7275;50.328;8.720;2022-12-07T15:34:41;1.93;;;1.30;;
14381;SDS011;7275;50.328;8.720;2022-12-07T15:37:08;1.30;;;1.00;;
14381;SDS011;7275;50.328;8.720;2022-12-07T15:39:37;1.97;;;1.27;;
14381;SDS011;7275;50.328;8.720;2022-12-07T15:42:05;2.23;;;1.37;;
14381;SDS011;7275;50.328;8.720;2022-12-07T15:44:32;1.93;;;1.33;;
14381;SDS011;7275;50.328;8.720;2022-12-07T15:47:18;2.37;;;1.40;;
14381;SDS011;7275;50.328;8.720;2022-12-07T15:49:46;2.37;;;1.30;;
14381;SDS011;7275;50.328;8.720;2022-12-07T15:52:15;2.33;;;1.27;;
14381;SDS011;7275;50.328;8.720;2022-12-07T15:54:44;1.40;;;1.10;;
14381;SDS011;7275;50.328;8.720;2022-12-07T15:57:13;1.23;;;1.00;;